Time;durP1;ratioP1;P1;durP2;ratioP2;P2;SDS_P1;SDS_P2;PMS_P1;PMS_P2;Temp;Humidity;BMP_temperature;BMP_pressure;BME280_temperature;BME280_humidity;BME280_pressure;Samples;Min_cycle;Max_cycle;Signal;HPM_P1;HPM_P2
2022/08/30 00:01:10;;;;;;;11.65;10.48;;;;;;;;;;4980510;28;20776;-64
2022/08/30 00:03:39;;;;;;;12.77;11.48;;;;;;;;;;4988407;28;20045;-63
2022/08/30 00:06:05;;;;;;;12.13;10.85;;;;;;;;;;4987864;28;20022;-63
2022/08/30 00:08:31;;;;;;;13.85;12.07;;;;;;;;;;4988397;28;20939;-64
2022/08/30 00:10:56;;;;;;;12.48;11.38;;;;;;;;;;4986073;28;20732;-63
2022/08/30 00:13:23;;;;;;;11.82;10.75;;;;;;;;;;4982973;28;20132;-63
2022/08/30 00:15:48;;;;;;;11.77;10.15;;;;;;;;;;4985567;28;20114;-64
2022/08/30 00:18:16;;;;;;;12.63;11.35;;;;;;;;;;4988143;28;20105;-64
2022/08/30 00:20:42;;;;;;;12.63;11.52;;;;;;;;;;4988253;28;20049;-64
2022/08/30 00:23:07;;;;;;;11.55;10.50;;;;;;;;;;4987526;28;20114;-64
2022/08/30 00:25:32;;;;;;;11.65;10.65;;;;;;;;;;4987378;28;20026;-64
2022/08/30 00:27:58;;;;;;;12.52;11.02;;;;;;;;;;4987808;28;20025;-63
2022/08/30 00:30:23;;;;;;;17.48;12.57;;;;;;;;;;4987841;28;20026;-63
2022/08/30 00:32:48;;;;;;;12.23;11.10;;;;;;;;;;4987539;28;20030;-64
2022/08/30 00:35:14;;;;;;;11.52;10.43;;;;;;;;;;4986938;28;20138;-64
2022/08/30 00:37:40;;;;;;;12.52;11.35;;;;;;;;;;4988177;28;20117;-64
2022/08/30 00:40:06;;;;;;;13.43;12.00;;;;;;;;;;4987753;28;20027;-64
2022/08/30 00:42:31;;;;;;;13.48;11.35;;;;;;;;;;4983506;28;20030;-64
2022/08/30 00:44:57;;;;;;;13.13;11.70;;;;;;;;;;4982894;28;20018;-64
2022/08/30 00:47:23;;;;;;;11.73;10.60;;;;;;;;;;4982463;28;20511;-64
2022/08/30 00:49:50;;;;;;;11.88;10.82;;;;;;;;;;4988098;28;20022;-63
2022/08/30 00:52:16;;;;;;;13.10;11.05;;;;;;;;;;4987252;28;20502;-64
2022/08/30 00:54:43;;;;;;;12.38;11.27;;;;;;;;;;4987304;28;20085;-64
2022/08/30 00:57:09;;;;;;;12.60;11.40;;;;;;;;;;4988020;28;20073;-64
2022/08/30 00:59:34;;;;;;;11.48;10.27;;;;;;;;;;4987785;28;20097;-65
2022/08/30 01:02:01;;;;;;;12.00;10.95;;;;;;;;;;4987380;28;20042;-64
2022/08/30 01:04:27;;;;;;;15.30;10.40;;;;;;;;;;4970157;28;20034;-64
2022/08/30 01:06:52;;;;;;;12.68;11.50;;;;;;;;;;4987424;28;20465;-64
2022/08/30 01:09:18;;;;;;;11.88;10.75;;;;;;;;;;4986931;28;20460;-64
2022/08/30 01:11:44;;;;;;;12.50;11.48;;;;;;;;;;4987671;28;20118;-64
2022/08/30 01:14:13;;;;;;;13.45;12.15;;;;;;;;;;4985922;28;20026;-64
2022/08/30 01:16:40;;;;;;;11.85;10.55;;;;;;;;;;4987953;28;20061;-64
2022/08/30 01:19:06;;;;;;;12.25;11.07;;;;;;;;;;4985965;28;20464;-64
2022/08/30 01:21:38;;;;;;;12.40;11.15;;;;;;;;;;4987288;28;20026;-64
2022/08/30 01:24:04;;;;;;;13.10;11.68;;;;;;;;;;4986940;28;20065;-64
2022/08/30 01:26:30;;;;;;;12.57;11.23;;;;;;;;;;4969711;28;20022;-64
2022/08/30 01:28:57;;;;;;;12.88;11.57;;;;;;;;;;4987077;28;20527;-65
2022/08/30 01:31:22;;;;;;;13.20;11.90;;;;;;;;;;4981006;28;20038;-64
2022/08/30 01:33:48;;;;;;;12.68;11.48;;;;;;;;;;4983092;28;20105;-65
2022/08/30 01:36:13;;;;;;;11.85;10.75;;;;;;;;;;4987252;28;20575;-65
2022/08/30 01:38:42;;;;;;;13.35;10.82;;;;;;;;;;4986120;28;20031;-65
2022/08/30 01:41:09;;;;;;;13.48;11.50;;;;;;;;;;4982191;28;20392;-64
2022/08/30 01:43:35;;;;;;;11.55;10.20;;;;;;;;;;4983421;28;20117;-64
2022/08/30 01:46:01;;;;;;;11.88;10.70;;;;;;;;;;4986768;28;20084;-64
2022/08/30 01:48:27;;;;;;;13.85;11.73;;;;;;;;;;4986263;28;20041;-64
2022/08/30 01:50:54;;;;;;;13.35;12.00;;;;;;;;;;4967654;28;20019;-64
2022/08/30 01:53:19;;;;;;;12.82;11.50;;;;;;;;;;4983642;28;20033;-64
2022/08/30 01:55:44;;;;;;;16.10;11.02;;;;;;;;;;4986529;28;20393;-63
2022/08/30 01:58:10;;;;;;;12.10;10.90;;;;;;;;;;4968352;28;20403;-64
2022/08/30 02:00:36;;;;;;;13.77;11.73;;;;;;;;;;4981160;28;20030;-64
2022/08/30 02:03:02;;;;;;;13.15;11.75;;;;;;;;;;4981853;28;20030;-64
2022/08/30 02:05:27;;;;;;;14.05;11.15;;;;;;;;;;4982124;28;20037;-64
2022/08/30 02:07:53;;;;;;;12.82;9.98;;;;;;;;;;4968699;28;20461;-64
2022/08/30 02:10:19;;;;;;;12.15;10.95;;;;;;;;;;4980961;28;20026;-64
2022/08/30 02:12:46;;;;;;;11.50;10.35;;;;;;;;;;4983541;28;20141;-65
2022/08/30 02:15:12;;;;;;;12.15;10.98;;;;;;;;;;4985660;28;20034;-64
2022/08/30 02:17:37;;;;;;;13.70;12.30;;;;;;;;;;4986005;28;20028;-64
2022/08/30 02:20:03;;;;;;;11.82;10.63;;;;;;;;;;4981648;28;20045;-64
2022/08/30 02:22:28;;;;;;;11.77;10.60;;;;;;;;;;4968196;28;20579;-64
2022/08/30 02:24:54;;;;;;;12.40;11.10;;;;;;;;;;4985383;28;20037;-64
2022/08/30 02:27:19;;;;;;;13.10;11.85;;;;;;;;;;4969130;28;20125;-64
2022/08/30 02:29:45;;;;;;;12.45;11.35;;;;;;;;;;4985901;28;20535;-65
2022/08/30 02:32:10;;;;;;;11.07;9.82;;;;;;;;;;4985546;28;20029;-65
2022/08/30 02:34:35;;;;;;;13.32;11.63;;;;;;;;;;4985552;28;20069;-64
2022/08/30 02:37:01;;;;;;;12.85;11.30;;;;;;;;;;4986482;28;20022;-64
2022/08/30 02:39:26;;;;;;;12.32;11.00;;;;;;;;;;4968230;28;20532;-65
2022/08/30 02:41:52;;;;;;;14.40;11.43;;;;;;;;;;4985625;28;20484;-64
2022/08/30 02:44:18;;;;;;;11.32;10.10;;;;;;;;;;4985981;28;20105;-66
2022/08/30 02:46:44;;;;;;;12.38;11.18;;;;;;;;;;4985062;28;20505;-64
2022/08/30 02:49:10;;;;;;;11.82;10.73;;;;;;;;;;4985648;28;20089;-64
2022/08/30 02:51:36;;;;;;;12.40;11.18;;;;;;;;;;4986762;28;20030;-67
2022/08/30 02:54:01;;;;;;;14.07;12.10;;;;;;;;;;4984054;28;20023;-64
2022/08/30 02:56:27;;;;;;;11.52;10.43;;;;;;;;;;4986268;28;20022;-64
2022/08/30 02:58:52;;;;;;;11.75;10.52;;;;;;;;;;4985447;28;20456;-64
2022/08/30 03:01:18;;;;;;;13.55;12.35;;;;;;;;;;4985635;28;20038;-65
2022/08/30 03:03:44;;;;;;;14.45;13.02;;;;;;;;;;4986204;28;20871;-63
2022/08/30 03:06:09;;;;;;;12.85;11.63;;;;;;;;;;4985068;28;21032;-64
2022/08/30 03:08:35;;;;;;;12.68;11.10;;;;;;;;;;4985908;28;20044;-64
2022/08/30 03:11:01;;;;;;;11.93;10.70;;;;;;;;;;4967475;28;20389;-64
2022/08/30 03:13:27;;;;;;;12.50;11.20;;;;;;;;;;4985628;28;20133;-64
2022/08/30 03:15:52;;;;;;;11.48;10.38;;;;;;;;;;4984392;28;20022;-63
2022/08/30 03:18:18;;;;;;;11.23;10.02;;;;;;;;;;4984995;28;20072;-63
2022/08/30 03:20:43;;;;;;;12.40;10.73;;;;;;;;;;4983953;28;20026;-63
2022/08/30 03:23:09;;;;;;;11.95;10.63;;;;;;;;;;4984736;28;20469;-63
2022/08/30 03:25:34;;;;;;;12.05;10.85;;;;;;;;;;4984086;28;20509;-64
2022/08/30 03:27:59;;;;;;;13.05;11.68;;;;;;;;;;4983472;28;20536;-65
2022/08/30 03:30:25;;;;;;;14.55;10.95;;;;;;;;;;4983944;28;20054;-64
2022/08/30 03:32:50;;;;;;;14.82;11.75;;;;;;;;;;4966995;28;20046;-65
2022/08/30 03:35:17;;;;;;;11.70;10.68;;;;;;;;;;4983912;28;20062;-65
2022/08/30 03:37:42;;;;;;;11.88;10.68;;;;;;;;;;4984743;28;20026;-65
2022/08/30 03:40:08;;;;;;;12.82;11.55;;;;;;;;;;4984541;28;20311;-65
2022/08/30 03:42:34;;;;;;;12.82;11.18;;;;;;;;;;4981399;28;20602;-65
2022/08/30 03:45:01;;;;;;;12.93;10.38;;;;;;;;;;4979512;28;20116;-67
2022/08/30 03:47:26;;;;;;;14.23;12.80;;;;;;;;;;4983731;28;20031;-65
2022/08/30 03:49:51;;;;;;;12.77;11.50;;;;;;;;;;4985212;28;20080;-64
2022/08/30 03:52:16;;;;;;;13.98;12.48;;;;;;;;;;4984792;28;20122;-64
2022/08/30 03:54:42;;;;;;;12.27;11.10;;;;;;;;;;4984747;28;20026;-64
2022/08/30 03:57:07;;;;;;;13.23;11.85;;;;;;;;;;4983876;28;20456;-64
2022/08/30 03:59:33;;;;;;;12.25;11.05;;;;;;;;;;4984795;28;20053;-65
2022/08/30 04:01:58;;;;;;;13.45;12.05;;;;;;;;;;4984881;28;20038;-63
2022/08/30 04:04:24;;;;;;;12.13;10.63;;;;;;;;;;4984379;28;20085;-64
2022/08/30 04:06:49;;;;;;;12.93;11.77;;;;;;;;;;4984510;28;20034;-64
2022/08/30 04:09:14;;;;;;;14.40;10.45;;;;;;;;;;4983753;28;20022;-63
2022/08/30 04:11:39;;;;;;;11.43;10.32;;;;;;;;;;4984924;28;20120;-64
2022/08/30 04:14:05;;;;;;;12.90;10.90;;;;;;;;;;4984300;28;20037;-64
2022/08/30 04:16:30;;;;;;;11.40;10.43;;;;;;;;;;4984641;28;20026;-64
2022/08/30 04:18:55;;;;;;;11.73;10.63;;;;;;;;;;4983694;28;20998;-63
2022/08/30 04:21:20;;;;;;;12.35;10.95;;;;;;;;;;4984532;28;20156;-63
2022/08/30 04:23:46;;;;;;;12.00;10.02;;;;;;;;;;4983839;28;20046;-64
2022/08/30 04:26:11;;;;;;;10.93;9.93;;;;;;;;;;4968714;28;20031;-64
2022/08/30 04:28:40;;;;;;;10.70;9.25;;;;;;;;;;4984331;28;20030;-64
2022/08/30 04:31:13;;;;;;;10.95;9.93;;;;;;;;;;4984030;28;20014;-63
2022/08/30 04:33:38;;;;;;;11.98;10.82;;;;;;;;;;4984068;28;20575;-64
2022/08/30 04:36:04;;;;;;;11.75;10.63;;;;;;;;;;4984051;28;20034;-64
2022/08/30 04:38:30;;;;;;;10.77;9.68;;;;;;;;;;4983750;28;20062;-64
2022/08/30 04:40:55;;;;;;;10.32;9.43;;;;;;;;;;4983969;28;20026;-65
2022/08/30 04:43:21;;;;;;;11.23;10.15;;;;;;;;;;4983684;28;20041;-64
2022/08/30 04:45:47;;;;;;;12.13;10.50;;;;;;;;;;4983936;28;20037;-64
2022/08/30 04:48:12;;;;;;;10.88;9.82;;;;;;;;;;4983774;28;20027;-64
2022/08/30 04:50:37;;;;;;;11.30;10.23;;;;;;;;;;4987863;28;20544;-64
2022/08/30 04:53:02;;;;;;;10.98;9.88;;;;;;;;;;4967369;28;20033;-65
2022/08/30 04:55:27;;;;;;;12.10;9.20;;;;;;;;;;4983157;28;20018;-64
2022/08/30 04:57:53;;;;;;;9.73;8.27;;;;;;;;;;4987454;28;20521;-64
2022/08/30 05:00:21;;;;;;;10.23;9.00;;;;;;;;;;4987475;28;20384;-65
2022/08/30 05:02:46;;;;;;;9.73;8.77;;;;;;;;;;4987406;28;20045;-64
2022/08/30 05:07:56;;;;;;;13.95;8.93;;;;;;;;;;4987354;28;20037;-64
2022/08/30 05:10:22;;;;;;;9.65;8.27;;;;;;;;;;4982744;28;20909;-65
2022/08/30 05:12:47;;;;;;;10.13;8.65;;;;;;;;;;4982828;28;20106;-63
2022/08/30 05:15:12;;;;;;;10.25;9.15;;;;;;;;;;4985927;28;20045;-63
2022/08/30 05:17:38;;;;;;;10.07;9.07;;;;;;;;;;4980143;28;20030;-63
2022/08/30 05:20:04;;;;;;;13.90;9.82;;;;;;;;;;4959621;28;20898;-64
2022/08/30 05:22:30;;;;;;;10.23;7.95;;;;;;;;;;4986769;28;20027;-63
2022/08/30 05:24:55;;;;;;;10.38;7.65;;;;;;;;;;4987923;28;20030;-65
2022/08/30 05:27:20;;;;;;;9.60;8.65;;;;;;;;;;4984072;28;20034;-64
2022/08/30 05:29:45;;;;;;;9.85;8.85;;;;;;;;;;4982527;28;20065;-64
2022/08/30 05:32:11;;;;;;;10.50;8.80;;;;;;;;;;4984386;28;20110;-66
2022/08/30 05:34:36;;;;;;;9.57;7.78;;;;;;;;;;4986871;28;20085;-64
2022/08/30 05:37:01;;;;;;;9.90;8.00;;;;;;;;;;4986444;28;20164;-64
2022/08/30 05:39:27;;;;;;;8.65;7.70;;;;;;;;;;4986941;28;20056;-64
2022/08/30 05:41:55;;;;;;;10.68;7.82;;;;;;;;;;4986125;28;20038;-64
2022/08/30 05:44:20;;;;;;;11.90;8.18;;;;;;;;;;4985816;28;20026;-64
2022/08/30 05:46:46;;;;;;;9.40;7.63;;;;;;;;;;4986881;28;20018;-64
2022/08/30 05:49:12;;;;;;;8.90;7.53;;;;;;;;;;4986679;28;20031;-65
2022/08/30 05:51:37;;;;;;;8.88;7.50;;;;;;;;;;4986612;28;20027;-69
2022/08/30 05:54:02;;;;;;;8.38;7.57;;;;;;;;;;4982918;28;20018;-66
2022/08/30 05:56:32;;;;;;;7.78;6.97;;;;;;;;;;4982229;28;20833;-66
2022/08/30 05:58:58;;;;;;;8.73;7.47;;;;;;;;;;4983134;28;20133;-65
2022/08/30 06:01:25;;;;;;;8.45;6.75;;;;;;;;;;4981426;28;20032;-64
2022/08/30 06:03:51;;;;;;;8.77;7.22;;;;;;;;;;4984934;28;20045;-65
2022/08/30 06:06:16;;;;;;;8.27;7.38;;;;;;;;;;4981845;28;20034;-66
2022/08/30 06:08:44;;;;;;;9.90;6.88;;;;;;;;;;4981374;28;20026;-64
2022/08/30 06:11:09;;;;;;;8.27;7.35;;;;;;;;;;4986392;28;20037;-63
2022/08/30 06:13:35;;;;;;;7.65;6.47;;;;;;;;;;4983985;28;20034;-68
2022/08/30 06:16:00;;;;;;;8.10;6.88;;;;;;;;;;4985195;28;20095;-66
2022/08/30 06:18:25;;;;;;;10.82;6.88;;;;;;;;;;4979422;28;20029;-66
2022/08/30 06:20:50;;;;;;;7.20;6.50;;;;;;;;;;4965970;28;20033;-66
2022/08/30 06:23:16;;;;;;;8.77;6.80;;;;;;;;;;4984571;28;20045;-65
2022/08/30 06:25:42;;;;;;;8.57;6.88;;;;;;;;;;4985657;28;20061;-66
2022/08/30 06:28:08;;;;;;;11.73;6.60;;;;;;;;;;4985004;28;20668;-66
2022/08/30 06:30:33;;;;;;;9.75;7.82;;;;;;;;;;4985737;28;20097;-67
2022/08/30 06:32:59;;;;;;;8.10;6.70;;;;;;;;;;4984734;28;20034;-66
2022/08/30 06:35:24;;;;;;;6.55;5.97;;;;;;;;;;4983473;28;20186;-66
2022/08/30 06:37:49;;;;;;;8.18;6.60;;;;;;;;;;4980531;28;20024;-66
2022/08/30 06:40:17;;;;;;;9.48;6.05;;;;;;;;;;4981616;28;20023;-66
2022/08/30 06:42:42;;;;;;;8.40;6.50;;;;;;;;;;4980150;28;20038;-66
2022/08/30 06:45:08;;;;;;;8.25;6.28;;;;;;;;;;4981378;28;20027;-66
2022/08/30 06:47:33;;;;;;;8.55;6.63;;;;;;;;;;4981654;28;20026;-66
2022/08/30 06:49:58;;;;;;;8.38;6.38;;;;;;;;;;4979052;28;20041;-66
2022/08/30 06:52:24;;;;;;;6.32;5.72;;;;;;;;;;4980715;28;20037;-66
2022/08/30 06:54:49;;;;;;;8.70;6.05;;;;;;;;;;4984590;28;20073;-66
2022/08/30 06:57:15;;;;;;;9.38;6.07;;;;;;;;;;4984420;28;20033;-66
2022/08/30 06:59:40;;;;;;;7.95;5.22;;;;;;;;;;4984292;28;20053;-67
2022/08/30 07:02:06;;;;;;;9.02;6.60;;;;;;;;;;4982403;28;20060;-68
2022/08/30 07:04:31;;;;;;;7.28;5.90;;;;;;;;;;4984723;28;20018;-67
2022/08/30 07:06:56;;;;;;;8.48;5.75;;;;;;;;;;4983464;28;20026;-67
2022/08/30 07:09:22;;;;;;;5.80;5.30;;;;;;;;;;4979990;28;20054;-66
2022/08/30 07:11:47;;;;;;;5.32;4.75;;;;;;;;;;4979597;28;20456;-68
2022/08/30 07:14:12;;;;;;;8.13;5.32;;;;;;;;;;4981275;28;20022;-67
2022/08/30 07:16:38;;;;;;;8.70;5.78;;;;;;;;;;4978826;28;20145;-66
2022/08/30 07:19:04;;;;;;;7.57;4.95;;;;;;;;;;4966663;28;20113;-67
2022/08/30 07:21:36;;;;;;;9.00;4.60;;;;;;;;;;4984399;28;20176;-68
2022/08/30 07:24:02;;;;;;;6.85;4.57;;;;;;;;;;4983742;28;20547;-66
2022/08/30 07:26:31;;;;;;;5.40;4.97;;;;;;;;;;4983937;28;20109;-67
2022/08/30 07:28:57;;;;;;;7.15;5.28;;;;;;;;;;4983258;28;20125;-66
2022/08/30 07:31:25;;;;;;;5.30;4.75;;;;;;;;;;4984114;28;20025;-67
2022/08/30 07:33:51;;;;;;;7.05;4.68;;;;;;;;;;4983335;28;20129;-67
2022/08/30 07:36:16;;;;;;;6.05;4.75;;;;;;;;;;4983847;28;20491;-67
2022/08/30 07:38:43;;;;;;;7.55;5.47;;;;;;;;;;4982774;28;20093;-66
2022/08/30 07:41:08;;;;;;;7.32;4.50;;;;;;;;;;4984002;28;20026;-66
2022/08/30 07:43:34;;;;;;;6.78;5.70;;;;;;;;;;4982647;28;20457;-66
2022/08/30 07:46:03;;;;;;;7.82;5.70;;;;;;;;;;4983859;28;20352;-66
2022/08/30 07:48:29;;;;;;;8.00;6.50;;;;;;;;;;4982245;28;20445;-67
2022/08/30 07:50:54;;;;;;;8.13;6.50;;;;;;;;;;4980787;28;20034;-67
2022/08/30 07:53:19;;;;;;;8.02;5.43;;;;;;;;;;4978199;28;20376;-67
2022/08/30 07:55:44;;;;;;;9.40;6.40;;;;;;;;;;4983507;28;20041;-66
2022/08/30 07:58:10;;;;;;;7.30;6.55;;;;;;;;;;4983033;28;20026;-67
2022/08/30 08:00:35;;;;;;;12.30;6.70;;;;;;;;;;4984039;28;20030;-66
2022/08/30 08:03:06;;;;;;;7.03;5.75;;;;;;;;;;4982524;28;20304;-66
2022/08/30 08:05:34;;;;;;;14.15;6.72;;;;;;;;;;4984138;28;20065;-66
2022/08/30 08:08:00;;;;;;;8.23;7.05;;;;;;;;;;4982715;28;20480;-67
2022/08/30 08:10:25;;;;;;;8.82;6.40;;;;;;;;;;4982151;28;20030;-66
2022/08/30 08:12:50;;;;;;;8.35;6.03;;;;;;;;;;4984657;28;21007;-66
2022/08/30 08:15:15;;;;;;;8.82;6.43;;;;;;;;;;4981897;28;20057;-66
2022/08/30 08:17:41;;;;;;;6.93;5.65;;;;;;;;;;4979849;28;20117;-68
2022/08/30 08:20:06;;;;;;;10.18;5.45;;;;;;;;;;4981905;28;20124;-67
2022/08/30 08:22:31;;;;;;;7.45;5.32;;;;;;;;;;4979466;28;20110;-66
2022/08/30 08:24:57;;;;;;;6.25;5.05;;;;;;;;;;4985961;28;20026;-67
2022/08/30 08:27:23;;;;;;;6.07;5.43;;;;;;;;;;4987292;28;20110;-68
2022/08/30 08:29:48;;;;;;;7.00;6.28;;;;;;;;;;4986971;28;20038;-67
2022/08/30 08:32:14;;;;;;;9.32;5.78;;;;;;;;;;4985909;28;20037;-66
2022/08/30 08:34:40;;;;;;;8.07;5.20;;;;;;;;;;4981661;28;20504;-67
2022/08/30 08:37:05;;;;;;;8.95;6.40;;;;;;;;;;4984594;28;20022;-67
2022/08/30 08:39:30;;;;;;;10.40;6.15;;;;;;;;;;4987122;28;20022;-68
2022/08/30 08:42:04;;;;;;;7.30;5.45;;;;;;;;;;4971743;28;20492;-67
2022/08/30 08:44:52;;;;;;;6.95;5.82;;;;;;;;;;4986462;28;20030;-66
2022/08/30 08:47:21;;;;;;;6.65;6.03;;;;;;;;;;4986455;28;20145;-67
2022/08/30 08:49:48;;;;;;;7.45;5.10;;;;;;;;;;4984794;28;20548;-67
2022/08/30 08:55:07;;;;;;;6.68;5.70;;;;;;;;;;4983860;28;20025;-65
2022/08/30 08:57:33;;;;;;;6.18;5.00;;;;;;;;;;4981295;28;20065;-68
2022/08/30 08:59:58;;;;;;;6.72;5.60;;;;;;;;;;4984496;28;20033;-67
2022/08/30 09:02:25;;;;;;;7.53;5.55;;;;;;;;;;4985216;28;20034;-66
2022/08/30 09:04:54;;;;;;;7.63;5.50;;;;;;;;;;4986035;28;20038;-67
2022/08/30 09:07:21;;;;;;;5.95;5.45;;;;;;;;;;4986023;28;20042;-67
2022/08/30 09:09:46;;;;;;;8.85;4.40;;;;;;;;;;4981739;28;20325;-68
2022/08/30 09:12:12;;;;;;;6.43;3.92;;;;;;;;;;4983755;28;20073;-68
2022/08/30 09:14:39;;;;;;;7.53;3.80;;;;;;;;;;4982138;28;21031;-67
2022/08/30 09:17:11;;;;;;;5.45;4.38;;;;;;;;;;4981527;28;20204;-66
2022/08/30 09:19:42;;;;;;;7.38;4.68;;;;;;;;;;4985825;28;20154;-67
2022/08/30 09:22:13;;;;;;;6.57;4.57;;;;;;;;;;4986145;28;20096;-67
2022/08/30 09:24:46;;;;;;;6.82;4.40;;;;;;;;;;4985829;28;20508;-67
2022/08/30 09:27:16;;;;;;;5.38;4.85;;;;;;;;;;4982616;28;20065;-67
2022/08/30 09:29:48;;;;;;;6.88;4.68;;;;;;;;;;4980270;28;20841;-65
2022/08/30 09:32:21;;;;;;;7.28;4.30;;;;;;;;;;4986127;28;20053;-67
2022/08/30 09:34:46;;;;;;;5.07;4.63;;;;;;;;;;4984999;28;20058;-68
2022/08/30 09:37:23;;;;;;;6.50;5.07;;;;;;;;;;4986144;28;20100;-69
2022/08/30 09:39:48;;;;;;;7.32;4.25;;;;;;;;;;4985445;28;20038;-68
2022/08/30 09:42:18;;;;;;;5.70;5.07;;;;;;;;;;4989243;28;20402;-69
2022/08/30 09:44:43;;;;;;;5.80;4.93;;;;;;;;;;4984612;28;20030;-69
2022/08/30 09:47:17;;;;;;;7.72;4.88;;;;;;;;;;4983083;28;20096;-68
2022/08/30 09:49:43;;;;;;;7.57;4.47;;;;;;;;;;4981158;28;20030;-67
2022/08/30 09:52:15;;;;;;;4.50;3.90;;;;;;;;;;4985207;28;20262;-69
2022/08/30 09:54:47;;;;;;;6.57;5.28;;;;;;;;;;4985491;28;20030;-63
2022/08/30 09:57:25;;;;;;;5.35;4.93;;;;;;;;;;4986654;28;20049;-63
2022/08/30 10:00:00;;;;;;;10.50;4.60;;;;;;;;;;4986388;28;20113;-62
2022/08/30 10:02:33;;;;;;;6.97;4.68;;;;;;;;;;4986380;28;20030;-62
2022/08/30 10:05:05;;;;;;;7.90;4.90;;;;;;;;;;4985308;28;20097;-61
2022/08/30 10:07:38;;;;;;;7.25;4.80;;;;;;;;;;4985973;28;20424;-61
2022/08/30 10:10:12;;;;;;;5.40;4.32;;;;;;;;;;4985045;28;20085;-63
2022/08/30 10:12:49;;;;;;;5.05;4.55;;;;;;;;;;4986352;28;20026;-62
2022/08/30 10:15:34;;;;;;;5.95;5.07;;;;;;;;;;4983137;28;20033;-62
2022/08/30 10:18:10;;;;;;;5.83;5.10;;;;;;;;;;4984672;28;20192;-61
2022/08/30 10:20:50;;;;;;;6.20;4.78;;;;;;;;;;4983034;28;21178;-61
2022/08/30 10:23:18;;;;;;;5.68;4.75;;;;;;;;;;4979594;28;20030;-61
2022/08/30 10:25:55;;;;;;;5.72;4.80;;;;;;;;;;4982565;28;20101;-60
2022/08/30 10:28:39;;;;;;;6.03;4.82;;;;;;;;;;4984173;28;20026;-60
2022/08/30 10:31:08;;;;;;;5.33;4.80;;;;;;;;;;4984183;28;20034;-61
2022/08/30 10:33:39;;;;;;;6.00;4.35;;;;;;;;;;4984584;28;20391;-59
2022/08/30 10:36:07;;;;;;;7.53;4.85;;;;;;;;;;4984443;28;20075;-61
2022/08/30 10:38:34;;;;;;;6.30;5.00;;;;;;;;;;4984372;28;20030;-60
2022/08/30 10:41:18;;;;;;;5.18;4.68;;;;;;;;;;4981673;28;20026;-61
2022/08/30 10:43:46;;;;;;;5.05;4.57;;;;;;;;;;4980270;28;20046;-69
2022/08/30 10:46:30;;;;;;;6.70;5.13;;;;;;;;;;4981861;28;20030;-69
2022/08/30 10:48:57;;;;;;;5.15;4.45;;;;;;;;;;4979011;28;20046;-69
2022/08/30 10:51:30;;;;;;;5.75;4.82;;;;;;;;;;4983933;28;20090;-69
2022/08/30 10:53:59;;;;;;;5.18;4.72;;;;;;;;;;4985005;28;20085;-70
2022/08/30 10:56:28;;;;;;;6.75;5.10;;;;;;;;;;4983701;28;20460;-68
2022/08/30 10:58:53;;;;;;;8.07;4.68;;;;;;;;;;4983556;28;20038;-69
2022/08/30 11:01:37;;;;;;;10.13;4.93;;;;;;;;;;4984631;28;20022;-69
2022/08/30 11:04:09;;;;;;;6.47;4.90;;;;;;;;;;4983857;28;20034;-68
2022/08/30 11:06:34;;;;;;;6.85;5.32;;;;;;;;;;4982757;28;20339;-69
2022/08/30 11:09:18;;;;;;;6.53;4.88;;;;;;;;;;4983783;28;20034;-60
2022/08/30 11:11:43;;;;;;;9.10;5.45;;;;;;;;;;4984749;28;20030;-59
2022/08/30 11:14:10;;;;;;;6.07;5.50;;;;;;;;;;4984923;28;20030;-62
2022/08/30 11:16:40;;;;;;;7.10;4.75;;;;;;;;;;4984475;28;20034;-70
2022/08/30 11:19:14;;;;;;;4.85;4.32;;;;;;;;;;4984829;28;20041;-70
2022/08/30 11:21:42;;;;;;;5.90;4.50;;;;;;;;;;4983839;28;20202;-61
2022/08/30 11:24:10;;;;;;;8.52;4.35;;;;;;;;;;4985147;28;20397;-66
2022/08/30 11:26:44;;;;;;;8.15;5.20;;;;;;;;;;4978858;28;20034;-69
2022/08/30 11:29:09;;;;;;;;;;;;;;;;;;4980487;28;20124;-67
2022/08/30 11:31:37;;;;;;;5.25;4.75;;;;;;;;;;4983303;28;19918;-69
2022/08/30 11:34:02;;;;;;;6.65;6.13;;;;;;;;;;4984049;28;20046;-67
2022/08/30 11:36:27;;;;;;;7.80;5.38;;;;;;;;;;4966790;28;20026;-67
2022/08/30 11:38:53;;;;;;;4.80;4.50;;;;;;;;;;4984426;28;20076;-69
2022/08/30 11:41:30;;;;;;;7.00;6.03;;;;;;;;;;4983804;28;20027;-68
2022/08/30 11:44:10;;;;;;;8.68;5.13;;;;;;;;;;4984271;28;20834;-69
2022/08/30 11:46:37;;;;;;;5.70;5.10;;;;;;;;;;4984070;28;20034;-72
2022/08/30 11:49:14;;;;;;;9.48;4.90;;;;;;;;;;4983785;28;20030;-71
2022/08/30 11:51:57;;;;;;;5.57;4.53;;;;;;;;;;4984167;28;20085;-69
2022/08/30 11:54:41;;;;;;;6.47;5.47;;;;;;;;;;4983814;28;20918;-69
2022/08/30 11:57:19;;;;;;;7.50;4.95;;;;;;;;;;4979712;28;20623;-70
2022/08/30 12:00:11;;;;;;;5.53;5.03;;;;;;;;;;4986285;28;20221;-70
2022/08/30 12:02:55;;;;;;;6.18;5.55;;;;;;;;;;4985940;28;20065;-70
2022/08/30 12:05:39;;;;;;;6.97;5.55;;;;;;;;;;4990637;28;20018;-70
2022/08/30 12:08:17;;;;;;;5.97;5.33;;;;;;;;;;4989799;28;20042;-70
2022/08/30 12:10:44;;;;;;;5.03;4.65;;;;;;;;;;4989139;28;20034;-71
2022/08/30 12:13:29;;;;;;;6.38;5.57;;;;;;;;;;4972637;28;20084;-69
2022/08/30 12:15:54;;;;;;;6.90;4.95;;;;;;;;;;4989753;28;20223;-69
2022/08/30 12:18:28;;;;;;;6.05;5.47;;;;;;;;;;4989254;28;20041;-69
2022/08/30 12:20:55;;;;;;;6.13;5.53;;;;;;;;;;4990417;28;20112;-69
2022/08/30 12:23:35;;;;;;;6.35;4.80;;;;;;;;;;4989834;28;20035;-69
2022/08/30 12:26:14;;;;;;;5.43;4.93;;;;;;;;;;4988078;28;20030;-70
2022/08/30 12:28:39;;;;;;;6.05;5.22;;;;;;;;;;4967388;28;20038;-70
2022/08/30 12:31:16;;;;;;;6.97;5.47;;;;;;;;;;4988275;28;20077;-70
2022/08/30 12:33:52;;;;;;;6.18;5.57;;;;;;;;;;4984581;28;20051;-69
2022/08/30 12:36:32;;;;;;;6.63;5.47;;;;;;;;;;4970555;28;20031;-68
2022/08/30 12:39:23;;;;;;;6.60;5.95;;;;;;;;;;4970489;28;20030;-69
2022/08/30 12:41:49;;;;;;;8.25;5.57;;;;;;;;;;4967094;28;20034;-70
2022/08/30 12:44:17;;;;;;;6.18;5.55;;;;;;;;;;4970970;28;20046;-70
2022/08/30 12:46:45;;;;;;;7.93;5.75;;;;;;;;;;4969147;28;20118;-70
2022/08/30 12:49:12;;;;;;;8.20;5.35;;;;;;;;;;4970360;28;20478;-69
2022/08/30 12:51:39;;;;;;;5.80;5.40;;;;;;;;;;4970393;28;20027;-70
2022/08/30 12:54:12;;;;;;;6.22;5.28;;;;;;;;;;4970794;28;20027;-70
2022/08/30 12:56:49;;;;;;;5.95;5.38;;;;;;;;;;4969449;28;20041;-69
2022/08/30 12:59:33;;;;;;;6.20;5.28;;;;;;;;;;4970750;28;20026;-69
2022/08/30 13:02:27;;;;;;;5.40;4.93;;;;;;;;;;4970274;28;20165;-70
2022/08/30 13:04:55;;;;;;;6.33;5.17;;;;;;;;;;4957643;28;20054;-70
2022/08/30 13:07:28;;;;;;;5.15;4.65;;;;;;;;;;4966795;28;20055;-70
2022/08/30 13:10:19;;;;;;;8.30;5.85;;;;;;;;;;4963919;28;20038;-70
2022/08/30 13:13:00;;;;;;;8.90;5.95;;;;;;;;;;4965236;28;20042;-70
2022/08/30 13:15:33;;;;;;;7.43;5.70;;;;;;;;;;4967698;28;20652;-70
2022/08/30 13:18:14;;;;;;;11.00;5.97;;;;;;;;;;4966892;28;20037;-70
2022/08/30 13:20:40;;;;;;;6.50;5.07;;;;;;;;;;4967717;28;20044;-70
2022/08/30 13:23:09;;;;;;;10.27;5.38;;;;;;;;;;4966710;28;20098;-71
2022/08/30 13:25:35;;;;;;;5.45;5.05;;;;;;;;;;4967568;28;20110;-70
2022/08/30 13:28:01;;;;;;;7.53;5.03;;;;;;;;;;4982235;28;20031;-69
2022/08/30 13:30:27;;;;;;;6.03;4.72;;;;;;;;;;4967074;28;20055;-69
2022/08/30 13:32:52;;;;;;;5.60;5.03;;;;;;;;;;4968296;28;20035;-70
2022/08/30 13:35:17;;;;;;;5.50;5.00;;;;;;;;;;4986249;28;20058;-69
2022/08/30 13:37:43;;;;;;;6.68;5.03;;;;;;;;;;4987115;28;20089;-68
2022/08/30 13:40:09;;;;;;;9.25;5.28;;;;;;;;;;4986604;28;20080;-69
2022/08/30 13:42:34;;;;;;;5.60;5.13;;;;;;;;;;4984548;28;20478;-69
2022/08/30 13:45:00;;;;;;;5.95;5.30;;;;;;;;;;4985979;28;20042;-69
2022/08/30 13:47:25;;;;;;;5.80;5.15;;;;;;;;;;4986224;28;20033;-69
2022/08/30 13:49:50;;;;;;;6.35;4.65;;;;;;;;;;4986820;28;20385;-69
2022/08/30 13:52:17;;;;;;;5.65;5.25;;;;;;;;;;4982808;28;20493;-70
2022/08/30 13:54:42;;;;;;;5.97;5.38;;;;;;;;;;4980870;28;20037;-69
2022/08/30 13:57:07;;;;;;;6.05;5.55;;;;;;;;;;4986668;28;20026;-69
2022/08/30 13:59:33;;;;;;;8.50;4.95;;;;;;;;;;4984870;28;20030;-70
2022/08/30 14:01:58;;;;;;;5.65;5.25;;;;;;;;;;4986636;28;20096;-63
2022/08/30 14:04:24;;;;;;;5.95;5.53;;;;;;;;;;4985532;28;20345;-68
2022/08/30 14:06:49;;;;;;;5.50;5.10;;;;;;;;;;4986531;28;20465;-69
2022/08/30 14:09:14;;;;;;;5.63;5.13;;;;;;;;;;4985759;28;20068;-68
2022/08/30 14:11:40;;;;;;;5.78;5.28;;;;;;;;;;4982462;28;20034;-69
2022/08/30 14:14:05;;;;;;;7.35;5.18;;;;;;;;;;4981283;28;20109;-68
2022/08/30 14:16:33;;;;;;;5.47;4.97;;;;;;;;;;4986046;28;20695;-69
2022/08/30 14:18:59;;;;;;;7.03;4.72;;;;;;;;;;4984516;28;20154;-71
2022/08/30 14:21:25;;;;;;;5.50;5.00;;;;;;;;;;4968401;28;20470;-70
2022/08/30 14:23:50;;;;;;;12.27;9.13;;;;;;;;;;4986118;28;20039;-70
2022/08/30 14:26:17;;;;;;;27.63;18.65;;;;;;;;;;4987073;28;20084;-69
2022/08/30 14:28:43;;;;;;;6.10;5.70;;;;;;;;;;4958465;28;20121;-69
2022/08/30 14:31:09;;;;;;;6.07;5.53;;;;;;;;;;4986397;28;20026;-70
2022/08/30 14:33:34;;;;;;;6.28;4.50;;;;;;;;;;4985886;28;20543;-70
2022/08/30 14:35:59;;;;;;;5.88;5.25;;;;;;;;;;4986730;28;20403;-70
2022/08/30 14:38:24;;;;;;;7.50;4.70;;;;;;;;;;4983238;28;20039;-71
2022/08/30 14:40:50;;;;;;;8.52;5.45;;;;;;;;;;4986536;28;20030;-69
2022/08/30 14:43:15;;;;;;;6.07;4.88;;;;;;;;;;4984749;28;20042;-70